LSME - Emmen, Switzerland
Distance from HB9FEE: SW 14km
Updated: Thu, 23-Nov-2017 8:50pm CET
Clear
Clear
 Wind from calm
Wind: Calm
Temperature: 3°C
Dew Point: 1°C
Humidity: 87%
Barometer: 1017 hPa
Clouds: Clear
Visibility: 16 miles
2017/11/23 19:50 LSME 231950Z AUTO 00000KT 9999NDV NCD 03/01 Q1017 RMK
LSZC - Buochs, Switzerland
Distance from HB9FEE: S 25km
Updated: Thu, 23-Nov-2017 8:50pm CET
Mostly Cloudy
Mostly Cloudy
 Wind from WSW
Wind: WSW 7 km/h
Temperature: 5°C
Wind Chill: 3°C
Dew Point: 1°C
Humidity: 76%
Barometer: 1017 hPa
Clouds: Mostly Cloudy
Visibility: 10 km
Cloud details: Mostly Cloudy 3353 m
2017/11/23 19:50 LSZC 231950Z AUTO 25004KT 200V270 9999 BKN110 05/01 Q1017
 
LSMA - Alpnach, Switzerland
Distance from HB9FEE: SSW 29km
Updated: Thu, 23-Nov-2017 8:50pm CET
Partly Cloudy
Partly Cloudy
 Wind from SSW
Wind: SSW 6 km/h
Temperature: 3°C
Dew Point: 1°C
Humidity: 87%
Barometer: 1017 hPa
Clouds: Partly Cloudy
Visibility: 16 miles
Cloud details: Partly Cloudy 3353 m
2017/11/23 19:50 LSMA 231950Z AUTO 20003KT 160V240 9999NDV SCT110 03/01 Q1017 RMK
LSMD - Dubendorf, Switzerland
Distance from HB9FEE: NE 29km
Updated: Thu, 23-Nov-2017 8:50pm CET
Clear
Clear
 Wind from SE
Wind: SE 9 km/h
Temperature: 8°C
Wind Chill: 6°C
Dew Point: 1°C
Humidity: 62%
Barometer: 1016 hPa
Clouds: Clear
Visibility: 16 miles
2017/11/23 19:50 LSMD 231950Z AUTO 13005KT 9999NDV NCD 08/01 Q1016 RMK
 
LSZH - Zurich-Kloten (a, Switzerland
Distance from HB9FEE: NNE 33km
Updated: Thu, 23-Nov-2017 8:50pm CET
Clear
Clear
 Wind from S
Wind: S 13 km/h
Temperature: 10°C
Wind Chill: 8°C
Dew Point: 2°C
Humidity: 58%
Barometer: 1016 hPa
Summary: Clear
Visibility: greater than 10 km
2017/11/23 19:50 LSZH 231950Z 18007KT CAVOK 10/02 Q1016 NOSIG
LSMM - Meiringen, Switzerland
Distance from HB9FEE: SSW 54km
Updated: Thu, 23-Nov-2017 8:50pm CET
Clear
Clear
 Wind from E
Wind: E 6 km/h
Temperature: 1°C
Dew Point: 0°C
Humidity: 93%
Barometer: 1018 hPa
Clouds: Clear
Visibility: 16 miles
2017/11/23 19:50 LSMM 231950Z AUTO 09003KT 9999NDV NCD 01/M00 Q1018 RMK
 
LSZB - Bern/Belp, Switzerland
Distance from HB9FEE: WSW 76km
Updated: Thu, 23-Nov-2017 8:50pm CET
Few Clouds
Few Clouds
 Wind from varies
Wind: varies 2 km/h
Temperature: 2°C
Dew Point: 1°C
Humidity: 93%
Barometer: 1017 hPa
Clouds: Few Clouds
Visibility: 10 km
Cloud details: Few Clouds 3353 m
2017/11/23 19:50 LSZB 231950Z AUTO VRB01KT 9999 FEW110 02/01 Q1017
LSZG - Grenchen, Switzerland
Distance from HB9FEE: W 76km
Updated: Thu, 23-Nov-2017 8:50pm CET
Partly Cloudy
Partly Cloudy
 Wind from WSW
Wind: WSW 6 km/h
Temperature: 5°C
Dew Point: 3°C
Humidity: 87%
Barometer: 1017 hPa
Clouds: Partly Cloudy
Visibility: 10 km
2017/11/23 19:50 LSZG 231950Z AUTO 25003KT 9999 NSC 05/03 Q1017
 
LFSB - Bale/Mulhouse, France
Distance from HB9FEE: NW 82km
Updated: Thu, 23-Nov-2017 9:00pm CET
Clear
Clear
 Wind from calm
Wind: Calm
Temperature: 6°C
Dew Point: 4°C
Humidity: 87%
Barometer: 1015 hPa
Summary: Clear
Visibility: greater than 10 km
2017/11/23 20:00 LFSB 232000Z 00000KT CAVOK 06/04 Q1015 NOSIG
LSZR - Rheineck/Altenrh, Switzerland
Distance from HB9FEE: ENE 92km
Updated: Thu, 23-Nov-2017 8:50pm CET
Overcast
Overcast
 Wind from varies
Wind: varies 4 km/h
Temperature: 10°C
Dew Point: 5°C
Humidity: 71%
Barometer: 1016 hPa
Clouds: Overcast
Visibility: 10 km
Cloud details: Overcast 2438 m
2017/11/23 19:50 LSZR 231950Z VRB02KT 9999 OVC080 10/05 Q1016 NOSIG RMK O
 
LSZL - Locarno, Switzerland
Distance from HB9FEE: SSE 119km
Updated: Thu, 23-Nov-2017 9:00pm CET
Mist, Few clouds
Mist, Few clouds
 Wind from calm
Wind: Calm
Temperature: 4°C
Dew Point: 4°C
Humidity: 100%
Barometer: 1021 hPa
Summary: Mist
Clouds: Few Clouds
Visibility: 4.7 miles
Cloud details: Few Clouds 1006 m
2017/11/23 20:00 LSZL 232000Z AUTO 00000KT 2900NDV BR FEW033 04/04 Q1021 RMK
LSMP - Payerne (mil/Aut, Switzerland
Distance from HB9FEE: WSW 121km
Updated: Thu, 23-Nov-2017 8:50pm CET
Mostly Cloudy
Mostly Cloudy
 Wind from SW
Wind: SW 7 km/h
Temperature: 8°C
Wind Chill: 7°C
Dew Point: 3°C
Humidity: 71%
Barometer: 1017 hPa
Clouds: Mostly Cloudy
Visibility: 16 miles
Cloud details: Mostly Cloudy 3353 m
2017/11/23 19:50 LSMP 231950Z AUTO 22004KT 9999NDV BKN110 08/03 Q1017 RMK
 
LSGC - Les Eplatures, Switzerland
Distance from HB9FEE: W 123km
Updated: Thu, 23-Nov-2017 8:50pm CET
Partly Cloudy
Partly Cloudy
 Wind from WSW
Wind: WSW 2 km/h
Temperature: 6°C
Dew Point: 2°C
Humidity: 76%
Barometer: 1017 hPa
Clouds: Partly Cloudy
Visibility: 10 km
2017/11/23 19:50 LSGC 231950Z AUTO 24001KT 9999 NSC 06/02 Q1017
LSZS - Samedan, Switzerland
Distance from HB9FEE: ESE 133km
Updated: Thu, 23-Nov-2017 8:50pm CET
Clear
Clear
 Wind from SSW
Wind: SSW 7 km/h
Temperature: -4°C
Wind Chill: -7°C
Dew Point: -6°C
Humidity: 86%
Barometer: 1020 hPa
Summary: Clear
Visibility: greater than 10 km
2017/11/23 19:50 LSZS 231950Z AUTO 20004KT CAVOK M04/M06 Q1020
 
LSGS - Sion (mil/Civ/Au, Switzerland
Distance from HB9FEE: SW 137km
Updated: Thu, 23-Nov-2017 8:50pm CET
Clear
Clear
 Wind from varies
Wind: varies 4 km/h
Temperature: 5°C
Dew Point: 0°C
Humidity: 70%
Barometer: 1019 hPa
Summary: Clear
Visibility: greater than 10 km
2017/11/23 19:50 LSGS 231950Z AUTO VRB02KT CAVOK 05/00 Q1019
LSZA - Lugano (pvt/Aut), Switzerland
Distance from HB9FEE: SSE 138km
Updated: Thu, 23-Nov-2017 8:50pm CET
Partly Cloudy
Partly Cloudy
 Wind from calm
Wind: Calm
Temperature: 6°C
Dew Point: 6°C
Humidity: 100%
Barometer: 1021 hPa
Clouds: Partly Cloudy
Visibility: 7 km
2017/11/23 19:50 LSZA 231950Z 00000KT 7000 NSC 06/06 Q1021 NOSIG